Leon — D5BH4 — position and weather

sailwx.info

Track history (hours):
 
Tides and Currents Weather Stations Pressure Air Temp Water Temp Dewpoint Dewpoint Depression Visibility Wind Speed Wind Dir Waves Ship Positions

Leon

Last reported at 2015-Apr-18 04:33 UTC. Time now 2015-Apr-18 04:51 UTC.
Position N 51°25' E 002°37'.

Length 95 m; draft 5.2 m.

Type: Ship (hazmat cat C). MMSI: 636015519.

Date/timePositionNaut miles runAvg speedWind from/ knotsBaromVisibWave heightAir tempDewpointWater temp
2015-Apr-18 04:33N 51°25' E 002°37'0 0.0
2015-Apr-18 03:33N 51°25' E 002°37'0 0.1
2015-Apr-18 02:32N 51°25' E 002°37'0 0.0
2015-Apr-18 01:33N 51°25' E 002°37'0 0.0
2015-Apr-18 00:33N 51°25' E 002°37'0 0.1
2015-Apr-17 23:32N 51°25' E 002°37'7 7.3
2015-Apr-17 22:33N 51°22' E 002°47'1110.6
2015-Apr-17 21:32N 51°22' E 003°05'  
2015-Apr-09 21:33N 51°21' E 003°12'6 5.4
2015-Apr-09 20:31N 51°22' E 003°03'9 8.9
2015-Apr-09 19:33N 51°22' E 002°49'9 8.5
2015-Apr-09 18:34N 51°22' E 002°35'9 9.0
2015-Apr-09 17:33N 51°19' E 002°22'7 7.1
2015-Apr-09 16:33N 51°15' E 002°12'7 6.8
2015-Apr-09 15:34N 51°12' E 002°03'8 8.4
2015-Apr-09 14:33N 51°08' E 001°51'1311.8
2015-Apr-09 13:28N 50°59' E 001°36'2110.4
2015-Apr-09 11:27N 50°41' E 001°21'  
Track history (hours):
 
Tides and Currents Weather Stations Pressure Air Temp Water Temp Dewpoint Dewpoint Depression Visibility Wind Speed Wind Dir Waves Ship Positions

Leon

Last reported at 2015-Apr-18 04:33 UTC. Time now 2015-Apr-18 04:51 UTC.
Position N 51°25' E 002°37'.

Length 95 m; draft 5.2 m.

Type: Ship (hazmat cat C). MMSI: 636015519.

Date/timePositionNaut miles runAvg speedWind from/ knotsBaromVisibWave heightAir tempDewpointWater temp
2015-Apr-18 04:33N 51°25' E 002°37'0 0.0
2015-Apr-18 03:33N 51°25' E 002°37'0 0.1
2015-Apr-18 02:32N 51°25' E 002°37'0 0.0
2015-Apr-18 01:33N 51°25' E 002°37'0 0.0
2015-Apr-18 00:33N 51°25' E 002°37'0 0.1
2015-Apr-17 23:32N 51°25' E 002°37'7 7.3
2015-Apr-17 22:33N 51°22' E 002°47'1110.6
2015-Apr-17 21:32N 51°22' E 003°05'  
2015-Apr-09 21:33N 51°21' E 003°12'6 5.4
2015-Apr-09 20:31N 51°22' E 003°03'9 8.9
2015-Apr-09 19:33N 51°22' E 002°49'9 8.5
2015-Apr-09 18:34N 51°22' E 002°35'9 9.0
2015-Apr-09 17:33N 51°19' E 002°22'7 7.1
2015-Apr-09 16:33N 51°15' E 002°12'7 6.8
2015-Apr-09 15:34N 51°12' E 002°03'8 8.4
2015-Apr-09 14:33N 51°08' E 001°51'1311.8
2015-Apr-09 13:28N 50°59' E 001°36'2110.4
2015-Apr-09 11:27N 50°41' E 001°21'  

Dump ship's entire track history